createdAt,value
2019-04-04T00:02:01.487Z,34.63
2019-04-04T00:04:33.869Z,32.00
2019-04-04T00:07:06.314Z,35.30
2019-04-04T00:09:38.692Z,33.60
2019-04-04T00:12:10.506Z,34.03
2019-04-04T00:14:43.905Z,34.47
2019-04-04T00:17:16.037Z,30.30
2019-04-04T00:19:48.714Z,34.53
2019-04-04T00:22:20.574Z,33.42
2019-04-04T00:24:52.376Z,32.13
2019-04-04T00:27:24.345Z,32.93
2019-04-04T00:29:56.154Z,30.50
2019-04-04T00:32:28.031Z,30.27
2019-04-04T00:35:00.493Z,30.45
2019-04-04T00:37:32.235Z,29.80
2019-04-04T00:40:04.285Z,33.83
2019-04-04T00:42:37.743Z,32.83
2019-04-04T00:45:09.422Z,31.80
2019-04-04T00:47:41.346Z,31.83
2019-04-04T00:50:12.946Z,30.57
2019-04-04T00:52:44.982Z,31.90
2019-04-04T00:55:18.519Z,29.80
2019-04-04T00:57:51.276Z,33.83
2019-04-04T01:00:24.059Z,30.07
2019-04-04T01:02:58.345Z,30.33
2019-04-04T01:05:32.047Z,31.20
2019-04-04T01:08:06.646Z,31.37
2019-04-04T01:10:39.040Z,33.43
2019-04-04T01:13:11.255Z,31.10
2019-04-04T01:15:43.182Z,34.47
2019-04-04T01:18:15.025Z,35.65
2019-04-04T01:20:50.445Z,34.40
2019-04-04T01:23:22.788Z,33.07
2019-04-04T01:25:54.391Z,35.93
2019-04-04T01:28:26.162Z,34.50
2019-04-04T01:30:58.152Z,36.47
2019-04-04T01:33:30.100Z,33.93
2019-04-04T01:36:01.954Z,34.33
2019-04-04T01:38:33.648Z,37.78
2019-04-04T01:41:06.157Z,34.75
2019-04-04T01:43:38.051Z,39.83
2019-04-04T01:46:13.013Z,33.18
2019-04-04T01:48:46.224Z,33.77
2019-04-04T01:51:18.306Z,36.42
2019-04-04T01:53:50.236Z,36.07
2019-04-04T01:56:21.918Z,35.52
2019-04-04T01:58:53.881Z,37.40
2019-04-04T02:01:25.647Z,33.53
2019-04-04T02:03:57.348Z,29.17
2019-04-04T02:06:29.218Z,32.53
2019-04-04T02:09:02.827Z,34.17
2019-04-04T02:11:37.317Z,32.60
2019-04-04T02:14:11.883Z,33.25
2019-04-04T02:16:50.974Z,29.50
2019-04-04T02:19:20.631Z,29.55
2019-04-04T02:21:53.491Z,34.23
2019-04-04T02:24:25.638Z,32.97
2019-04-04T02:26:57.262Z,33.50
2019-04-04T02:29:29.568Z,32.03
2019-04-04T02:32:04.833Z,35.87
2019-04-04T02:34:37.883Z,39.77
2019-04-04T02:37:10.470Z,35.20
2019-04-04T02:39:42.445Z,32.20
2019-04-04T02:42:15.471Z,31.70
2019-04-04T02:44:47.233Z,36.00
2019-04-04T02:47:18.877Z,29.73
2019-04-04T02:49:50.773Z,34.37
2019-04-04T02:52:22.836Z,30.77
2019-04-04T02:54:58.238Z,31.00
2019-04-04T02:57:28.767Z,33.53
2019-04-04T03:00:01.505Z,27.63
2019-04-04T03:02:36.062Z,25.93
2019-04-04T03:05:08.593Z,26.63
2019-04-04T03:07:42.059Z,25.43
2019-04-04T03:10:16.371Z,27.30
2019-04-04T03:12:48.168Z,28.97
2019-04-04T03:15:20.259Z,27.20
2019-04-04T03:17:52.107Z,30.13
2019-04-04T03:20:24.039Z,30.93
2019-04-04T03:23:00.173Z,29.30
2019-04-04T03:25:29.634Z,31.43
2019-04-04T03:28:01.252Z,32.83
2019-04-04T03:30:35.577Z,34.70
2019-04-04T03:33:07.399Z,33.60
2019-04-04T03:35:39.876Z,32.40
2019-04-04T03:38:13.318Z,36.75
2019-04-04T03:40:45.030Z,28.55
2019-04-04T03:43:17.109Z,31.87
2019-04-04T03:45:49.384Z,32.17
2019-04-04T03:48:21.208Z,32.40
2019-04-04T03:50:56.714Z,32.73
2019-04-04T03:53:26.818Z,30.43
2019-04-04T03:56:01.248Z,29.80
2019-04-04T03:58:31.892Z,28.93
2019-04-04T04:01:03.542Z,29.83
2019-04-04T04:03:36.273Z,28.33
2019-04-04T04:06:08.823Z,29.43
2019-04-04T04:08:41.648Z,34.97
2019-04-04T04:11:14.168Z,31.57
2019-04-04T04:13:48.966Z,31.90
2019-04-04T04:16:19.782Z,32.73
2019-04-04T04:18:53.956Z,36.00
2019-04-04T04:21:25.733Z,33.75
2019-04-04T04:23:58.072Z,30.63
2019-04-04T04:26:31.946Z,28.52
2019-04-04T04:29:03.922Z,39.40
2019-04-04T04:31:35.706Z,39.10
2019-04-04T04:34:07.639Z,31.40
2019-04-04T04:36:39.418Z,31.90
2019-04-04T04:39:11.142Z,36.77
2019-04-04T04:41:43.130Z,34.40
2019-04-04T04:44:15.451Z,29.75
2019-04-04T04:46:50.289Z,28.73
2019-04-04T04:49:23.413Z,30.93
2019-04-04T04:51:55.487Z,32.57
2019-04-04T04:54:28.729Z,37.20
2019-04-04T04:57:03.520Z,33.17
2019-04-04T04:59:34.303Z,33.67
2019-04-04T05:02:06.327Z,46.80
2019-04-04T05:04:38.482Z,39.60
2019-04-04T05:07:10.293Z,38.23
2019-04-04T05:09:45.027Z,30.90
2019-04-04T05:12:16.729Z,33.93
2019-04-04T05:14:49.684Z,42.13
2019-04-04T05:17:22.389Z,44.00
2019-04-04T05:19:54.051Z,47.13
2019-04-04T05:22:25.690Z,36.53
2019-04-04T05:25:08.015Z,40.83
2019-04-04T05:27:31.170Z,45.28
2019-04-04T05:30:03.465Z,35.93
2019-04-04T05:32:35.542Z,39.60
2019-04-04T05:35:07.626Z,39.57
2019-04-04T05:37:39.523Z,43.63
2019-04-04T05:40:11.637Z,48.60
2019-04-04T05:42:43.728Z,40.43
2019-04-04T05:45:16.008Z,44.80
2019-04-04T05:47:48.838Z,43.33
2019-04-04T05:50:21.149Z,35.15
2019-04-04T05:52:52.853Z,44.43
2019-04-04T05:55:24.597Z,36.83
2019-04-04T05:57:56.416Z,37.20
2019-04-04T06:00:28.333Z,34.00
2019-04-04T06:03:00.047Z,35.00
2019-04-04T06:05:32.038Z,35.33
2019-04-04T06:08:03.986Z,36.23
2019-04-04T06:10:35.578Z,32.50
2019-04-04T06:13:07.534Z,32.60
2019-04-04T06:15:40.478Z,28.63
2019-04-04T15:03:42.671Z,12.23
2019-04-04T15:06:14.387Z,12.73
2019-04-04T15:08:46.195Z,12.10
2019-04-04T15:11:24.184Z,14.03
2019-04-04T15:13:52.237Z,12.43
2019-04-04T15:16:24.257Z,12.53
2019-04-04T15:18:55.781Z,12.47
2019-04-04T15:21:27.428Z,12.57
2019-04-04T15:23:59.461Z,11.77
2019-04-04T15:26:31.022Z,12.57
2019-04-04T15:29:02.633Z,12.50
2019-04-04T15:31:34.689Z,12.60
2019-04-04T15:34:07.938Z,15.57
2019-04-04T15:36:39.663Z,13.63
2019-04-04T17:54:07.294Z,17.97
2019-04-04T17:56:39.300Z,18.70
2019-04-04T17:59:11.157Z,17.55
2019-04-04T18:01:43.658Z,20.57
2019-04-04T18:04:15.585Z,17.60
2019-04-04T18:06:47.627Z,18.30
2019-04-04T18:09:31.126Z,17.12
2019-04-04T18:11:53.072Z,16.60
2019-04-04T18:14:26.786Z,16.87
2019-04-04T18:16:59.701Z,17.63
2019-04-04T18:19:31.499Z,17.53
2019-04-04T18:22:03.690Z,18.00
2019-04-04T18:24:37.071Z,18.00
2019-04-04T18:27:08.709Z,17.80
2019-04-04T18:29:40.549Z,19.27
2019-04-04T18:32:12.445Z,17.73
2019-04-04T18:34:44.046Z,19.00
2019-04-04T18:37:15.622Z,20.72
2019-04-04T18:39:47.323Z,20.13
2019-04-04T18:42:18.987Z,19.57
2019-04-04T18:44:51.214Z,18.57
2019-04-04T18:47:24.483Z,19.90
2019-04-04T18:49:57.023Z,20.17
2019-04-04T18:52:28.604Z,20.43
2019-04-04T18:55:00.329Z,20.20
2019-04-04T18:57:32.102Z,20.50
2019-04-04T19:00:04.238Z,20.60
2019-04-04T19:02:37.493Z,20.90
2019-04-04T19:05:09.555Z,19.23
2019-04-04T19:07:41.382Z,19.53
2019-04-04T19:10:13.488Z,19.40
2019-04-04T19:12:45.108Z,19.50
2019-04-04T19:15:17.320Z,19.25
2019-04-04T19:17:48.973Z,20.10
2019-04-04T19:20:21.075Z,21.40
2019-04-04T19:22:53.143Z,22.63
2019-04-04T19:25:25.177Z,19.37
2019-04-04T19:27:57.989Z,21.30
2019-04-04T19:30:29.924Z,20.17
2019-04-04T19:33:01.574Z,20.40
2019-04-04T19:35:34.488Z,20.73
2019-04-04T19:38:06.828Z,20.30
2019-04-04T19:40:38.637Z,19.83
2019-04-04T19:43:17.949Z,20.48
2019-04-04T19:45:44.762Z,20.20
2019-04-04T19:48:16.375Z,20.20
2019-04-04T19:50:48.375Z,20.13
2019-04-04T19:53:20.283Z,20.63
2019-04-04T19:55:52.000Z,20.23
2019-04-04T19:58:23.956Z,21.95
2019-04-04T20:00:57.250Z,20.23
2019-04-04T20:03:29.352Z,19.33
2019-04-04T20:06:02.689Z,22.50
2019-04-04T20:08:34.543Z,19.20
2019-04-04T20:11:06.518Z,19.00
2019-04-04T20:13:38.414Z,20.13
2019-04-04T20:16:12.224Z,20.23
2019-04-04T20:18:44.005Z,22.30
2019-04-04T20:21:15.833Z,20.12
2019-04-04T20:23:47.757Z,20.77
2019-04-04T20:26:20.427Z,23.05
2019-04-04T20:28:54.247Z,21.83
2019-04-04T20:31:25.914Z,23.33
2019-04-04T20:34:01.928Z,21.87
2019-04-04T20:36:31.400Z,23.70
2019-04-04T20:39:04.615Z,21.53
2019-04-04T20:41:36.793Z,25.60
2019-04-04T20:44:09.513Z,24.40
2019-04-04T20:46:41.317Z,24.57
2019-04-04T20:49:13.501Z,30.13
2019-04-04T20:51:46.392Z,28.83
2019-04-04T20:54:18.402Z,25.88
2019-04-04T20:56:50.048Z,29.47
2019-04-04T20:59:22.449Z,25.43
2019-04-04T21:01:54.315Z,25.17
2019-04-04T21:04:25.992Z,33.23
2019-04-04T21:06:58.083Z,25.20
2019-04-04T21:09:29.980Z,27.30
2019-04-04T21:12:01.685Z,25.93
2019-04-04T21:14:34.508Z,27.47
2019-04-04T21:17:07.502Z,26.73
2019-04-04T21:19:39.311Z,29.17
2019-04-04T21:22:12.109Z,25.45
2019-04-04T21:24:43.839Z,25.35
2019-04-04T21:27:18.554Z,28.60
2019-04-04T21:29:49.062Z,23.33
2019-04-04T21:32:20.894Z,28.75
2019-04-04T21:34:52.422Z,37.33
2019-04-04T21:37:24.357Z,35.20
2019-04-04T21:39:55.906Z,31.33
2019-04-04T21:42:29.420Z,29.60
2019-04-04T21:45:02.084Z,23.17
2019-04-04T21:47:34.098Z,21.10
2019-04-04T21:50:06.439Z,20.60
2019-04-04T21:52:38.432Z,21.50
2019-04-04T21:55:10.090Z,21.87
2019-04-04T21:57:41.993Z,21.50
2019-04-04T22:00:15.158Z,21.55
2019-04-04T22:02:48.851Z,23.93
2019-04-04T22:05:21.104Z,23.70
2019-04-04T22:07:52.727Z,30.73
2019-04-04T22:10:24.516Z,25.17
2019-04-04T22:12:57.318Z,27.77
2019-04-04T22:15:29.322Z,32.87
2019-04-04T22:18:01.091Z,28.33
2019-04-04T22:20:33.207Z,31.57
2019-04-04T22:23:05.073Z,29.37
2019-04-04T22:25:36.711Z,25.30
2019-04-04T22:28:08.556Z,25.17
2019-04-04T22:30:40.472Z,33.60
2019-04-04T22:33:12.102Z,28.07
2019-04-04T22:35:44.172Z,25.93
2019-04-04T22:38:15.915Z,25.17
2019-04-04T22:40:48.013Z,22.77
2019-04-04T22:43:19.776Z,31.40
2019-04-04T22:45:51.514Z,25.13
2019-04-04T22:48:23.163Z,24.92
2019-04-04T22:50:55.002Z,24.87
2019-04-04T22:53:26.907Z,24.80
2019-04-04T22:55:59.348Z,24.87
2019-04-04T22:58:31.341Z,26.60
2019-04-04T23:01:04.195Z,25.57
2019-04-04T23:03:35.749Z,24.70
2019-04-04T23:06:07.333Z,24.43
2019-04-04T23:08:38.991Z,23.50
2019-04-04T23:11:10.986Z,26.60
2019-04-04T23:13:43.152Z,23.97
2019-04-04T23:16:14.664Z,26.93
2019-04-04T23:18:46.503Z,24.60
2019-04-04T23:21:18.143Z,25.80
2019-04-04T23:23:49.701Z,27.13
2019-04-04T23:26:21.385Z,29.60
2019-04-04T23:28:53.135Z,24.70
2019-04-04T23:31:24.862Z,25.33
2019-04-04T23:33:57.152Z,24.23
2019-04-04T23:36:34.775Z,25.03
2019-04-04T23:39:02.018Z,27.13
2019-04-04T23:41:35.851Z,22.93
2019-04-04T23:44:07.609Z,28.37
2019-04-04T23:46:39.231Z,25.23
2019-04-04T23:49:10.903Z,25.83
2019-04-04T23:51:42.806Z,29.70
2019-04-04T23:54:14.562Z,23.43
2019-04-04T23:56:46.336Z,28.07
2019-04-04T23:59:18.386Z,23.07
